| time (UTC) | temp F | wind direction | speed knots | gust knots | rain 1hr in | rain 24hr in | rain mn in | humidity % | barometer mb |
| 20260505192707 | 74 | 6 | 5.2 | 7.0 | 0.00 | 0.00 | 0.00 | 38 | 1011.7 |
| 20260505192203 | 74 | 39 | 5.2 | 7.0 | 0.00 | 0.00 | 0.00 | 35 | 1011.8 |
| 20260505191702 | 73 | 312 | 1.7 | 2.6 | 0.00 | 0.00 | 0.00 | 39 | 1011.7 |
| 20260505191200 | 74 | 225 | 3.5 | 6.1 | 0.00 | 0.00 | 0.00 | 40 | 1011.8 |
| 20260505190656 | 72 | 59 | 1.7 | 3.5 | 0.00 | 0.00 | 0.00 | 44 | 1011.8 |
| 20260505190155 | 71 | 184 | 0.9 | 0.9 | 0.00 | 0.00 | 0.00 | 43 | 1011.7 |
| 20260505185652 | 71 | 237 | 0.0 | 0.0 | 0.00 | 0.00 | 0.00 | 45 | 1011.8 |
| 20260505185149 | 71 | 251 | 0.9 | 0.9 | 0.00 | 0.00 | 0.00 | 43 | 1011.8 |
| 20260505184645 | 72 | 221 | 1.7 | 1.7 | 0.00 | 0.00 | 0.00 | 44 | 1011.8 |
| 20260505184142 | 71 | 256 | 0.0 | 0.9 | 0.00 | 0.00 | 0.00 | 45 | 1011.8 |
| 20260505183639 | 71 | 238 | 0.0 | 0.9 | 0.00 | 0.00 | 0.00 | 45 | 1011.7 |
| 20260505183137 | 72 | 248 | 1.7 | 1.7 | 0.00 | 0.00 | 0.00 | 45 | 1011.7 |
| 20260505182633 | 72 | 68 | 1.7 | 1.7 | 0.00 | 0.00 | 0.00 | 44 | 1011.9 |
| 20260505182130 | 70 | 180 | 2.6 | 2.6 | 0.00 | 0.00 | 0.00 | 46 | 1011.8 |
| 20260505181626 | 71 | 217 | 1.7 | 1.7 | 0.00 | 0.00 | 0.00 | 46 | 1011.8 |
| 20260505181124 | 72 | 220 | 0.0 | 0.0 | 0.00 | 0.00 | 0.00 | 49 | 1011.7 |
| 20260505180620 | 72 | 188 | 0.9 | 1.7 | 0.00 | 0.00 | 0.00 | 44 | 1011.8 |
| 20260505180117 | 70 | 223 | 0.0 | 0.0 | 0.00 | 0.00 | 0.00 | 49 | 1011.9 |
| 20260505175613 | 70 | 185 | 2.6 | 3.5 | 0.00 | 0.00 | 0.00 | 50 | 1011.8 |
| 20260505175110 | 69 | 180 | 1.7 | 1.7 | 0.00 | 0.00 | 0.00 | 48 | 1012.0 |
| 20260505174606 | 69 | 215 | 0.9 | 0.9 | 0.00 | 0.00 | 0.00 | 55 | 1011.9 |
| 20260505174102 | 68 | 211 | 0.0 | 0.0 | 0.00 | 0.00 | 0.00 | 55 | 1011.9 |
| 20260505173559 | 69 | 214 | 1.7 | 1.7 | 0.00 | 0.00 | 0.00 | 54 | 1011.8 |
| 20260505173056 | 69 | 204 | 0.9 | 1.7 | 0.00 | 0.00 | 0.00 | 53 | 1011.7 |
| 20260505172554 | 69 | 162 | 2.6 | 2.6 | 0.00 | 0.00 | 0.00 | 57 | 1011.9 |
| 20260505172050 | 67 | 174 | 1.7 | 1.7 | 0.00 | 0.00 | 0.00 | 53 | 1011.9 |
| 20260505171545 | 66 | 169 | 0.9 | 1.7 | 0.00 | 0.00 | 0.00 | 56 | 1012.0 |
| 20260505171042 | 66 | 187 | 0.9 | 0.9 | 0.00 | 0.00 | 0.00 | 58 | 1011.9 |
| 20260505170539 | 66 | 224 | 0.0 | 0.0 | 0.00 | 0.00 | 0.00 | 59 | 1012.1 |
| 20260505170036 | 65 | 200 | 0.9 | 1.7 | 0.00 | 0.00 | 0.00 | 59 | 1011.9 |
| 20260505165531 | 64 | 212 | 0.0 | 0.0 | 0.00 | 0.00 | 0.00 | 63 | 1011.8 |
| 20260505165026 | 64 | 189 | 2.6 | 3.5 | 0.00 | 0.00 | 0.00 | 61 | 1012.2 |
| 20260505164523 | 63 | 183 | 1.7 | 1.7 | 0.00 | 0.00 | 0.00 | 62 | 1012.0 |
| 20260505164021 | 63 | 163 | 1.7 | 2.6 | 0.00 | 0.00 | 0.00 | 61 | 1012.2 |
| 20260505163519 | 62 | 220 | 0.0 | 0.0 | 0.00 | 0.00 | 0.00 | 63 | 1012.0 |
| 20260505163015 | 61 | 183 | 2.6 | 2.6 | 0.00 | 0.00 | 0.00 | 63 | 1012.1 |
| 20260505162509 | 61 | 183 | 1.7 | 1.7 | 0.00 | 0.00 | 0.00 | 65 | 1012.1 |
| 20260505162006 | 60 | 179 | 1.7 | 2.6 | 0.00 | 0.00 | 0.00 | 65 | 1012.2 |
| 20260505161502 | 59 | 187 | 0.9 | 0.9 | 0.00 | 0.00 | 0.00 | 65 | 1012.1 |
| 20260505161000 | 59 | 238 | 1.7 | 1.7 | 0.00 | 0.00 | 0.00 | 65 | 1012.1 |
| 20260505160458 | 59 | 194 | 0.9 | 0.9 | 0.00 | 0.00 | 0.00 | 68 | 1012.0 |
| 20260505152934 | 56 | 201 | 0.0 | 0.9 | 0.00 | 0.00 | 0.00 | 69 | 1012.1 |
| 20260505152431 | 56 | 211 | 0.9 | 0.9 | 0.00 | 0.00 | 0.00 | 70 | 1012.1 |
| 20260505151931 | 56 | 229 | 1.7 | 1.7 | 0.00 | 0.00 | 0.00 | 72 | 1012.1 |
| 20260505151427 | 55 | 206 | 0.9 | 1.7 | 0.00 | 0.00 | 0.00 | 73 | 1012.1 |
| 20260505150925 | 55 | 182 | 1.7 | 2.6 | 0.00 | 0.00 | 0.00 | 73 | 1011.9 |
| 20260505150422 | 55 | 183 | 2.6 | 2.6 | 0.00 | 0.00 | 0.00 | 72 | 1012.0 |
| 20260505140351 | 53 | 220 | 0.9 | 0.9 | 0.00 | 0.00 | 0.00 | 74 | 1011.4 |
| 20260505124805 | 46 | 293 | 1.7 | 2.6 | 0.00 | 0.00 | 0.00 | 81 | 1010.8 |
| 20260505124302 | 46 | 272 | 1.7 | 2.6 | 0.00 | 0.00 | 0.00 | 80 | 1010.7 |
| 20260505123758 | 46 | 309 | 1.7 | 1.7 | 0.00 | 0.00 | 0.00 | 80 | 1010.7 |
| 20260505123255 | 48 | 281 | 1.7 | 1.7 | 0.00 | 0.00 | 0.00 | 78 | 1010.5 |
| 20260505122751 | 48 | 276 | 0.9 | 1.7 | 0.00 | 0.00 | 0.00 | 77 | 1010.7 |
| 20260505122248 | 47 | 265 | 1.7 | 1.7 | 0.00 | 0.00 | 0.00 | 81 | 1010.6 |
| 20260505121745 | 48 | 268 | 1.7 | 2.6 | 0.00 | 0.00 | 0.00 | 76 | 1010.5 |
| 20260505121242 | 47 | 36 | 1.7 | 2.6 | 0.00 | 0.00 | 0.00 | 79 | 1010.4 |
| 20260505120738 | 46 | 259 | 0.9 | 0.9 | 0.00 | 0.00 | 0.00 | 82 | 1010.4 |
| 20260505120234 | 46 | 268 | 0.9 | 0.9 | 0.00 | 0.00 | 0.00 | 83 | 1010.4 |
| 20260505115733 | 46 | 266 | 0.9 | 0.9 | 0.00 | 0.00 | 0.00 | 82 | 1010.5 |
| 20260505115231 | 47 | 265 | 0.9 | 0.9 | 0.00 | 0.00 | 0.00 | 82 | 1010.4 |
| 20260505114728 | 47 | 264 | 0.9 | 0.9 | 0.00 | 0.00 | 0.00 | 79 | 1010.3 |
| 20260505114224 | 47 | 279 | 1.7 | 1.7 | 0.00 | 0.00 | 0.00 | 79 | 1010.4 |
| 20260505113721 | 46 | 278 | 0.9 | 0.9 | 0.00 | 0.00 | 0.00 | 81 | 1010.4 |
| 20260505113217 | 47 | 259 | 0.0 | 0.0 | 0.00 | 0.00 | 0.00 | 80 | 1010.5 |
| 20260505112714 | 47 | 255 | 0.0 | 0.9 | 0.00 | 0.00 | 0.00 | 79 | 1010.4 |
| 20260505112212 | 46 | 257 | 0.9 | 0.9 | 0.00 | 0.00 | 0.00 | 80 | 1010.3 |
| 20260505111711 | 47 | 269 | 0.9 | 0.9 | 0.00 | 0.00 | 0.00 | 78 | 1010.2 |
| 20260505111208 | 47 | 271 | 0.9 | 0.9 | 0.00 | 0.00 | 0.00 | 79 | 1010.0 |
| 20260505110703 | 48 | 275 | 0.9 | 1.7 | 0.00 | 0.00 | 0.00 | 79 | 1010.2 |
| 20260505110201 | 48 | 251 | 0.9 | 0.9 | 0.00 | 0.00 | 0.00 | 78 | 1010.3 |
| 20260505102137 | 48 | 241 | 0.0 | 0.0 | 0.00 | 0.00 | 0.00 | 79 | 1009.8 |
| 20260505101635 | 48 | 237 | 0.0 | 0.0 | 0.00 | 0.00 | 0.00 | 79 | 1009.9 |
| 20260505101131 | 48 | 239 | 0.0 | 0.9 | 0.00 | 0.00 | 0.00 | 77 | 1009.8 |
| 20260505100627 | 50 | 213 | 0.9 | 0.9 | 0.00 | 0.00 | 0.00 | 75 | 1009.7 |
| 20260505100124 | 49 | 239 | 0.9 | 0.9 | 0.00 | 0.00 | 0.00 | 73 | 1009.8 |
| 20260505095620 | 49 | 289 | 0.9 | 0.9 | 0.00 | 0.00 | 0.00 | 76 | 1009.9 |
| 20260505095117 | 48 | 260 | 0.9 | 1.7 | 0.00 | 0.00 | 0.00 | 78 | 1009.8 |
| 20260505094614 | 47 | 242 | 0.9 | 0.9 | 0.00 | 0.00 | 0.00 | 81 | 1009.6 |
| 20260505094110 | 47 | 240 | 0.9 | 0.9 | 0.00 | 0.00 | 0.00 | 82 | 1009.6 |
| 20260505093606 | 47 | 278 | 1.7 | 1.7 | 0.00 | 0.00 | 0.00 | 81 | 1009.5 |
| 20260505093104 | 48 | 269 | 1.7 | 1.7 | 0.00 | 0.00 | 0.00 | 78 | 1009.7 |
| 20260505092601 | 49 | 272 | 0.9 | 0.9 | 0.00 | 0.00 | 0.00 | 77 | 1009.5 |
| 20260505092100 | 50 | 265 | 0.9 | 0.9 | 0.00 | 0.00 | 0.00 | 76 | 1009.4 |
| 20260505091556 | 50 | 249 | 0.0 | 0.9 | 0.00 | 0.00 | 0.00 | 76 | 1009.7 |
| 20260505091054 | 50 | 258 | 0.9 | 0.9 | 0.00 | 0.00 | 0.00 | 74 | 1009.5 |
| 20260505090552 | 50 | 255 | 0.0 | 0.9 | 0.00 | 0.00 | 0.00 | 76 | 1009.5 |
| 20260505090050 | 50 | 250 | 0.0 | 0.9 | 0.00 | 0.00 | 0.00 | 76 | 1009.5 |
| 20260505085547 | 49 | 252 | 0.0 | 0.9 | 0.00 | 0.00 | 0.00 | 77 | 1009.6 |
| 20260505085045 | 48 | 274 | 0.9 | 0.9 | 0.00 | 0.00 | 0.00 | 78 | 1009.5 |
| 20260505084543 | 48 | 276 | 0.9 | 1.7 | 0.00 | 0.00 | 0.00 | 79 | 1009.4 |
| 20260505084041 | 48 | 267 | 0.9 | 1.7 | 0.00 | 0.00 | 0.00 | 80 | 1009.4 |
| 20260505083538 | 48 | 353 | 2.6 | 2.6 | 0.00 | 0.00 | 0.00 | 80 | 1009.4 |
| 20260505083034 | 48 | 305 | 2.6 | 2.6 | 0.00 | 0.00 | 0.00 | 80 | 1009.5 |
| 20260505082530 | 49 | 356 | 1.7 | 2.6 | 0.00 | 0.00 | 0.00 | 79 | 1009.4 |
| 20260505082027 | 51 | 296 | 0.9 | 1.7 | 0.00 | 0.00 | 0.00 | 76 | 1009.4 |
| 20260505081523 | 51 | 278 | 1.7 | 2.6 | 0.00 | 0.00 | 0.00 | 75 | 1009.4 |
| 20260505081021 | 51 | 258 | 0.9 | 0.9 | 0.00 | 0.00 | 0.00 | 74 | 1009.4 |
| 20260505080517 | 51 | 272 | 1.7 | 1.7 | 0.00 | 0.00 | 0.00 | 72 | 1009.3 |
| 20260505080014 | 51 | 318 | 1.7 | 1.7 | 0.00 | 0.00 | 0.00 | 74 | 1009.4 |
| 20260505075509 | 52 | 293 | 0.9 | 1.7 | 0.00 | 0.00 | 0.00 | 71 | 1009.5 |
| 20260505075006 | 51 | 299 | 1.7 | 1.7 | 0.00 | 0.00 | 0.00 | 72 | 1009.5 |
| 20260505074504 | 51 | 270 | 0.9 | 1.7 | 0.00 | 0.00 | 0.00 | 73 | 1009.7 |
| 20260505074001 | 51 | 281 | 1.7 | 1.7 | 0.00 | 0.00 | 0.00 | 74 | 1009.3 |
| 20260505073458 | 53 | 288 | 1.7 | 2.6 | 0.00 | 0.00 | 0.00 | 71 | 1009.5 |
| 20260505072956 | 53 | 283 | 1.7 | 1.7 | 0.00 | 0.00 | 0.00 | 70 | 1009.3 |
| 20260505072452 | 53 | 281 | 1.7 | 1.7 | 0.00 | 0.00 | 0.00 | 70 | 1009.4 |
| 20260505071948 | 53 | 290 | 0.9 | 1.7 | 0.00 | 0.00 | 0.00 | 71 | 1009.3 |
| 20260505071444 | 52 | 274 | 0.9 | 1.7 | 0.00 | 0.00 | 0.00 | 72 | 1009.3 |
| 20260505070942 | 51 | 264 | 0.9 | 0.9 | 0.00 | 0.00 | 0.00 | 79 | 1009.3 |
| 20260505070439 | 51 | 274 | 0.9 | 0.9 | 0.00 | 0.00 | 0.00 | 78 | 1009.3 |
| 20260505065934 | 51 | 289 | 1.7 | 1.7 | 0.00 | 0.00 | 0.00 | 77 | 1009.1 |
| 20260505065431 | 51 | 254 | 0.9 | 0.9 | 0.00 | 0.00 | 0.00 | 77 | 1009.1 |
| 20260505064927 | 51 | 248 | 0.9 | 0.9 | 0.00 | 0.00 | 0.00 | 76 | 1009.1 |
| 20260505064425 | 51 | 259 | 0.9 | 0.9 | 0.00 | 0.00 | 0.00 | 76 | 1009.1 |
| 20260505063923 | 52 | 264 | 0.9 | 0.9 | 0.00 | 0.00 | 0.00 | 76 | 1009.0 |
| 20260505063419 | 51 | 258 | 0.9 | 0.9 | 0.00 | 0.00 | 0.00 | 76 | 1008.9 |
| 20260505062916 | 52 | 276 | 0.9 | 1.7 | 0.00 | 0.00 | 0.00 | 73 | 1009.0 |
| 20260505062413 | 52 | 277 | 1.7 | 1.7 | 0.00 | 0.00 | 0.00 | 73 | 1009.0 |
| 20260505061909 | 53 | 278 | 0.9 | 0.9 | 0.00 | 0.00 | 0.00 | 71 | 1009.0 |
| 20260505061408 | 53 | 271 | 0.9 | 0.9 | 0.00 | 0.00 | 0.00 | 72 | 1009.0 |
| 20260505060905 | 53 | 270 | 0.9 | 0.9 | 0.00 | 0.00 | 0.00 | 72 | 1009.1 |
| 20260505060402 | 52 | 257 | 0.9 | 0.9 | 0.00 | 0.00 | 0.00 | 74 | 1009.2 |
| 20260505055858 | 52 | 261 | 0.9 | 0.9 | 0.00 | 0.00 | 0.00 | 75 | 1008.7 |
| 20260505055354 | 53 | 258 | 0.9 | 0.9 | 0.00 | 0.00 | 0.00 | 74 | 1008.9 |
| 20260505054851 | 53 | 275 | 0.9 | 1.7 | 0.00 | 0.00 | 0.00 | 72 | 1009.0 |
| 20260505054348 | 53 | 272 | 1.7 | 1.7 | 0.00 | 0.00 | 0.00 | 73 | 1008.9 |
| 20260505053847 | 54 | 313 | 0.9 | 1.7 | 0.00 | 0.00 | 0.00 | 72 | 1008.7 |
| 20260505053344 | 55 | 330 | 1.7 | 2.6 | 0.00 | 0.00 | 0.00 | 69 | 1008.7 |
| 20260505052840 | 54 | 266 | 0.9 | 0.9 | 0.00 | 0.00 | 0.00 | 70 | 1009.0 |
| 20260505052337 | 54 | 297 | 1.7 | 1.7 | 0.00 | 0.00 | 0.00 | 71 | 1008.9 |
| 20260505051834 | 54 | 259 | 0.9 | 1.7 | 0.00 | 0.00 | 0.00 | 74 | 1008.7 |
| 20260505051331 | 55 | 272 | 0.9 | 1.7 | 0.00 | 0.00 | 0.00 | 69 | 1008.9 |
| 20260505050829 | 55 | 257 | 0.9 | 1.7 | 0.00 | 0.00 | 0.00 | 69 | 1008.9 |
| 20260505050328 | 55 | 306 | 2.6 | 2.6 | 0.00 | 0.00 | 0.00 | 67 | 1009.0 |
| 20260505041758 | 57 | 255 | 0.9 | 0.9 | 0.00 | 0.00 | 0.00 | 64 | 1008.6 |
| 20260505041255 | 57 | 329 | 1.7 | 1.7 | 0.00 | 0.00 | 0.00 | 61 | 1008.5 |
| 20260505040752 | 58 | 279 | 0.9 | 1.7 | 0.00 | 0.00 | 0.00 | 64 | 1008.6 |
| 20260505040250 | 59 | 337 | 2.6 | 2.6 | 0.00 | 0.00 | 0.00 | 58 | 1008.7 |
| 20260505035746 | 61 | 352 | 1.7 | 1.7 | 0.00 | 0.00 | 0.00 | 56 | 1008.6 |
| 20260505035242 | 60 | 5 | 1.7 | 2.6 | 0.00 | 0.00 | 0.00 | 57 | 1008.5 |
| 20260505034739 | 60 | 300 | 1.7 | 1.7 | 0.00 | 0.00 | 0.00 | 56 | 1008.6 |
| 20260505034236 | 59 | 290 | 0.9 | 1.7 | 0.00 | 0.00 | 0.00 | 56 | 1008.5 |
| 20260505033733 | 59 | 254 | 0.0 | 0.9 | 0.00 | 0.00 | 0.00 | 58 | 1008.4 |
| 20260505033230 | 59 | 258 | 0.0 | 0.0 | 0.00 | 0.00 | 0.00 | 59 | 1008.4 |
| 20260505032728 | 61 | 251 | 0.0 | 0.9 | 0.00 | 0.00 | 0.00 | 55 | 1008.2 |
| 20260505032224 | 61 | 234 | 0.0 | 0.0 | 0.00 | 0.00 | 0.00 | 53 | 1008.4 |
| 20260505031721 | 62 | 272 | 1.7 | 1.7 | 0.00 | 0.00 | 0.00 | 53 | 1008.1 |
| 20260505031217 | 63 | 259 | 0.9 | 1.7 | 0.00 | 0.00 | 0.00 | 48 | 1008.0 |
| 20260505030714 | 64 | 243 | 0.0 | 0.9 | 0.00 | 0.00 | 0.00 | 49 | 1008.1 |
| 20260505030210 | 65 | 240 | 0.0 | 0.0 | 0.00 | 0.00 | 0.00 | 44 | 1008.2 |
| 20260505025706 | 65 | 270 | 0.0 | 0.0 | 0.00 | 0.00 | 0.00 | 45 | 1007.9 |
| 20260505025205 | 65 | 196 | 0.0 | 0.0 | 0.00 | 0.00 | 0.00 | 45 | 1007.9 |
| 20260505024703 | 64 | 309 | 0.0 | 0.9 | 0.00 | 0.00 | 0.00 | 47 | 1007.9 |
| 20260505024200 | 65 | 246 | 0.9 | 0.9 | 0.00 | 0.00 | 0.00 | 47 | 1007.8 |
| 20260505023657 | 65 | 228 | 0.0 | 0.0 | 0.00 | 0.00 | 0.00 | 44 | 1007.8 |
| 20260505023154 | 66 | 235 | 0.0 | 0.0 | 0.00 | 0.00 | 0.00 | 45 | 1007.7 |
| 20260505022652 | 67 | 235 | 0.9 | 0.9 | 0.00 | 0.00 | 0.00 | 43 | 1007.8 |
| 20260505022149 | 68 | 331 | 2.6 | 2.6 | 0.00 | 0.00 | 0.00 | 40 | 1007.5 |
| 20260505021645 | 68 | 48 | 1.7 | 2.6 | 0.00 | 0.00 | 0.00 | 38 | 1007.8 |
| 20260505021142 | 69 | 38 | 0.9 | 0.9 | 0.00 | 0.00 | 0.00 | 39 | 1007.7 |
| 20260505020637 | 69 | 35 | 1.7 | 1.7 | 0.00 | 0.00 | 0.00 | 36 | 1007.7 |
| 20260505020134 | 69 | 13 | 1.7 | 2.6 | 0.00 | 0.00 | 0.00 | 35 | 1007.7 |
| 20260505015631 | 70 | 257 | 0.9 | 0.9 | 0.00 | 0.00 | 0.00 | 36 | 1007.7 |
| 20260505015127 | 70 | 296 | 1.7 | 1.7 | 0.00 | 0.00 | 0.00 | 36 | 1007.7 |
| 20260505014624 | 70 | 332 | 1.7 | 2.6 | 0.00 | 0.00 | 0.00 | 34 | 1007.8 |
| 20260505014121 | 71 | 358 | 3.5 | 5.2 | 0.00 | 0.00 | 0.00 | 34 | 1007.7 |
| 20260505013619 | 71 | 40 | 1.7 | 1.7 | 0.00 | 0.00 | 0.00 | 32 | 1007.5 |
| 20260505013116 | 71 | 291 | 1.7 | 1.7 | 0.00 | 0.00 | 0.00 | 31 | 1007.7 |
| 20260505012614 | 72 | 243 | 1.7 | 1.7 | 0.00 | 0.00 | 0.00 | 30 | 1007.7 |
| 20260505012111 | 72 | 236 | 3.5 | 5.2 | 0.00 | 0.00 | 0.00 | 32 | 1007.7 |
| 20260505011606 | 73 | 253 | 0.9 | 1.7 | 0.00 | 0.00 | 0.00 | 33 | 1007.7 |
| 20260505011104 | 73 | 242 | 1.7 | 2.6 | 0.00 | 0.00 | 0.00 | 30 | 1007.7 |
| 20260505010605 | 74 | 229 | 0.9 | 1.7 | 0.00 | 0.00 | 0.00 | 32 | 1007.7 |
| 20260505005558 | 73 | 277 | 2.6 | 3.5 | 0.00 | 0.00 | 0.00 | 31 | 1007.8 |
| 20260505005055 | 73 | 356 | 3.5 | 5.2 | 0.00 | 0.00 | 0.00 | 30 | 1007.8 |
| 20260505004552 | 74 | 291 | 1.7 | 1.7 | 0.00 | 0.00 | 0.00 | 30 | 1007.8 |
| 20260505004049 | 74 | 248 | 1.7 | 1.7 | 0.00 | 0.00 | 0.00 | 30 | 1007.9 |
| 20260505003546 | 74 | 306 | 2.6 | 2.6 | 0.00 | 0.00 | 0.00 | 30 | 1007.9 |
| 20260505003043 | 74 | 5 | 4.3 | 6.1 | 0.00 | 0.00 | 0.00 | 28 | 1007.9 |
| 20260505002544 | 74 | 248 | 0.9 | 0.9 | 0.00 | 0.00 | 0.00 | 30 | 1007.7 |
| 20260505002043 | 75 | 235 | 1.7 | 1.7 | 0.00 | 0.00 | 0.00 | 31 | 1007.9 |
| 20260505001540 | 75 | 298 | 3.5 | 3.5 | 0.00 | 0.00 | 0.00 | 29 | 1007.7 |
| 20260505001037 | 75 | 14 | 0.9 | 1.7 | 0.00 | 0.00 | 0.00 | 30 | 1007.9 |
| 20260505000534 | 75 | 341 | 2.6 | 3.5 | 0.00 | 0.00 | 0.00 | 28 | 1007.9 |
| 20260505000032 | 75 | 312 | 1.7 | 2.6 | 0.00 | 0.00 | 0.00 | 29 | 1007.9 |
| 20260504235529 | 75 | 42 | 5.2 | 8.7 | 0.00 | 0.00 | 0.00 | 27 | 1007.8 |
| 20260504235025 | 75 | 312 | 5.2 | 7.0 | 0.00 | 0.00 | 0.00 | 27 | 1007.5 |
| 20260504234522 | 75 | 235 | 0.9 | 1.7 | 0.00 | 0.00 | 0.00 | 32 | 1008.0 |
| 20260504234019 | 75 | 115 | 0.9 | 1.7 | 0.00 | 0.00 | 0.00 | 29 | 1007.9 |
| 20260504233514 | 75 | 357 | 3.5 | 6.1 | 0.00 | 0.00 | 0.00 | 29 | 1007.9 |
| 20260504233012 | 75 | 316 | 3.5 | 3.5 | 0.00 | 0.00 | 0.00 | 27 | 1007.8 |
| 20260504232509 | 75 | 28 | 1.7 | 6.1 | 0.00 | 0.00 | 0.00 | 31 | 1008.0 |
| 20260504232006 | 76 | 12 | 4.3 | 5.2 | 0.00 | 0.00 | 0.00 | 30 | 1008.1 |
| 20260504231502 | 75 | 261 | 2.6 | 3.5 | 0.00 | 0.00 | 0.00 | 30 | 1007.8 |
| 20260504230959 | 76 | 304 | 3.5 | 3.5 | 0.00 | 0.00 | 0.00 | 31 | 1008.1 |
| 20260504230455 | 76 | 22 | 3.5 | 5.2 | 0.00 | 0.00 | 0.00 | 30 | 1008.0 |
| 20260504225954 | 76 | 246 | 2.6 | 3.5 | 0.00 | 0.00 | 0.00 | 31 | 1007.8 |
| 20260504225450 | 76 | 354 | 3.5 | 5.2 | 0.00 | 0.00 | 0.00 | 30 | 1007.9 |
| 20260504224948 | 76 | 347 | 7.8 | 9.6 | 0.00 | 0.00 | 0.00 | 31 | 1008.0 |
| 20260504224444 | 75 | 16 | 8.7 | 11.3 | 0.00 | 0.00 | 0.00 | 31 | 1008.2 |
| 20260504223941 | 76 | 282 | 6.1 | 8.7 | 0.00 | 0.00 | 0.00 | 31 | 1008.0 |
| 20260504223437 | 76 | 14 | 4.3 | 5.2 | 0.00 | 0.00 | 0.00 | 33 | 1008.3 |
| 20260504222933 | 76 | 3 | 1.7 | 3.5 | 0.00 | 0.00 | 0.00 | 30 | 1008.2 |
| 20260504222431 | 76 | 290 | 3.5 | 5.2 | 0.00 | 0.00 | 0.00 | 31 | 1008.2 |
| 20260504221929 | 76 | 55 | 7.0 | 9.6 | 0.00 | 0.00 | 0.00 | 30 | 1008.3 |
| 20260504221425 | 77 | 6 | 3.5 | 5.2 | 0.00 | 0.00 | 0.00 | 31 | 1008.2 |
| 20260504220922 | 77 | 183 | 0.0 | 0.9 | 0.00 | 0.00 | 0.00 | 34 | 1008.3 |
| 20260504220419 | 77 | 208 | 1.7 | 2.6 | 0.00 | 0.00 | 0.00 | 33 | 1008.3 |
| 20260504215916 | 76 | 36 | 3.5 | 6.1 | 0.00 | 0.00 | 0.00 | 31 | 1008.5 |
| 20260504215413 | 76 | 12 | 3.5 | 3.5 | 0.00 | 0.00 | 0.00 | 32 | 1008.6 |
| 20260504214909 | 76 | 352 | 0.9 | 1.7 | 0.00 | 0.00 | 0.00 | 33 | 1008.5 |
| 20260504214406 | 76 | 323 | 3.5 | 5.2 | 0.00 | 0.00 | 0.00 | 31 | 1008.6 |
| 20260504213903 | 77 | 210 | 0.9 | 0.9 | 0.00 | 0.00 | 0.00 | 32 | 1008.6 |
| 20260504213358 | 76 | 275 | 0.9 | 1.7 | 0.00 | 0.00 | 0.00 | 35 | 1008.6 |
| 20260504212856 | 77 | 319 | 5.2 | 6.1 | 0.00 | 0.00 | 0.00 | 29 | 1008.9 |
| 20260504212351 | 76 | 221 | 2.6 | 3.5 | 0.00 | 0.00 | 0.00 | 32 | 1008.5 |
| 20260504211850 | 76 | 317 | 3.5 | 5.2 | 0.00 | 0.00 | 0.00 | 31 | 1009.0 |
| 20260504211345 | 76 | 238 | 2.6 | 5.2 | 0.00 | 0.00 | 0.00 | 30 | 1008.7 |
| 20260504210843 | 76 | 339 | 6.1 | 7.8 | 0.00 | 0.00 | 0.00 | 28 | 1008.9 |
| 20260504210340 | 76 | 57 | 3.5 | 5.2 | 0.00 | 0.00 | 0.00 | 31 | 1008.9 |
| 20260504205837 | 76 | 12 | 7.0 | 11.3 | 0.00 | 0.00 | 0.00 | 27 | 1008.9 |
| 20260504205335 | 76 | 28 | 6.1 | 7.8 | 0.00 | 0.00 | 0.00 | 29 | 1008.7 |
| 20260504204833 | 76 | 307 | 6.1 | 7.8 | 0.00 | 0.00 | 0.00 | 28 | 1008.7 |
| 20260504204331 | 76 | 354 | 5.2 | 7.8 | 0.00 | 0.00 | 0.00 | 28 | 1008.9 |
| 20260504203830 | 76 | 246 | 3.5 | 6.1 | 0.00 | 0.00 | 0.00 | 30 | 1008.5 |
| 20260504203327 | 76 | 335 | 6.1 | 7.8 | 0.00 | 0.00 | 0.00 | 30 | 1008.7 |
| 20260504202822 | 76 | 15 | 8.7 | 12.2 | 0.00 | 0.00 | 0.00 | 27 | 1008.7 |
| 20260504202320 | 76 | 27 | 6.1 | 7.8 | 0.00 | 0.00 | 0.00 | 30 | 1008.6 |
| 20260504201816 | 77 | 11 | 3.5 | 6.1 | 0.00 | 0.00 | 0.00 | 30 | 1008.5 |
| 20260504201314 | 76 | 173 | 1.7 | 1.7 | 0.00 | 0.00 | 0.00 | 29 | 1008.6 |
| 20260504200811 | 77 | 35 | 7.8 | 13.0 | 0.00 | 0.00 | 0.00 | 29 | 1008.9 |
| 20260504200307 | 77 | 342 | 5.2 | 7.0 | 0.00 | 0.00 | 0.00 | 29 | 1008.7 |
| 20260504195803 | 77 | 355 | 5.2 | 7.0 | 0.00 | 0.00 | 0.00 | 29 | 1008.7 |
| 20260504195259 | 76 | 281 | 3.5 | 5.2 | 0.00 | 0.00 | 0.00 | 29 | 1008.7 |
| 20260504194756 | 76 | 12 | 8.7 | 11.3 | 0.00 | 0.00 | 0.00 | 28 | 1008.7 |
| 20260504194253 | 77 | 17 | 5.2 | 6.1 | 0.00 | 0.00 | 0.00 | 28 | 1008.7 |
| 20260504193749 | 76 | 65 | 0.9 | 2.6 | 0.00 | 0.00 | 0.00 | 32 | 1008.9 |
| 20260504193246 | 76 | 16 | 2.6 | 3.5 | 0.00 | 0.00 | 0.00 | 38 | 1008.9 |